createdAt,value
2023-05-12T00:01:46.535Z,7.77
2023-05-12T00:06:48.905Z,9.40
2023-05-12T00:11:51.193Z,9.83
2023-05-12T00:16:53.635Z,6.10
2023-05-12T00:21:55.860Z,5.07
2023-05-12T00:26:58.136Z,4.63
2023-05-12T00:32:00.718Z,3.27
2023-05-12T00:37:03.061Z,4.77
2023-05-12T00:42:05.771Z,5.10
2023-05-12T00:47:09.260Z,5.80
2023-05-12T00:52:11.862Z,5.53
2023-05-12T00:57:14.806Z,5.57
2023-05-12T01:02:17.384Z,5.77
2023-05-12T01:07:23.146Z,5.97
2023-05-12T01:12:27.445Z,2.90
2023-05-12T01:17:35.211Z,3.60
2023-05-12T01:22:40.146Z,5.10
2023-05-12T01:27:43.939Z,5.10
2023-05-12T01:32:46.431Z,5.97
2023-05-12T01:37:48.660Z,5.23
2023-05-12T01:42:50.810Z,6.43
2023-05-12T01:47:53.658Z,4.50
2023-05-12T01:52:56.078Z,3.87
2023-05-12T01:57:58.251Z,2.83
2023-05-12T02:03:01.170Z,3.40
2023-05-12T02:08:04.540Z,4.00
2023-05-12T02:13:07.200Z,4.00
2023-05-12T02:18:10.449Z,3.40
2023-05-12T02:23:14.697Z,4.80
2023-05-12T02:28:16.986Z,7.33
2023-05-12T02:33:23.359Z,5.27
2023-05-12T02:38:25.947Z,3.90
2023-05-12T02:43:28.203Z,4.07
2023-05-12T02:48:30.782Z,5.10
2023-05-12T02:53:33.332Z,4.40
2023-05-12T02:58:35.754Z,4.10
2023-05-12T03:03:38.078Z,4.47
2023-05-12T03:08:40.481Z,5.10
2023-05-12T03:13:42.670Z,4.77
2023-05-12T03:18:44.829Z,5.10
2023-05-12T03:23:47.119Z,6.67
2023-05-12T03:28:49.505Z,10.90
2023-05-12T03:33:51.613Z,372.93
2023-05-12T03:38:53.976Z,429.87
2023-05-12T03:43:56.281Z,376.47
2023-05-12T03:48:59.133Z,413.57
2023-05-12T03:54:01.859Z,374.23
2023-05-12T03:59:04.375Z,316.87
2023-05-12T04:04:06.659Z,269.07
2023-05-12T04:09:08.909Z,318.17
2023-05-12T04:14:11.977Z,262.37
2023-05-12T04:19:14.078Z,215.00
2023-05-12T04:24:16.590Z,138.77
2023-05-12T04:29:19.036Z,162.87
2023-05-12T04:34:22.419Z,104.80
2023-05-12T04:39:25.523Z,99.43
2023-05-12T04:44:28.319Z,84.83
2023-05-12T04:49:30.919Z,59.03
2023-05-12T04:54:33.283Z,56.43
2023-05-12T04:59:36.296Z,56.57
2023-05-12T05:04:38.909Z,57.70
2023-05-12T05:09:41.146Z,51.33
2023-05-12T05:14:43.315Z,42.83
2023-05-12T05:19:57.286Z,40.83
2023-05-12T05:25:01.065Z,34.70
2023-05-12T05:30:03.676Z,20.23
2023-05-12T05:35:08.529Z,26.93
2023-05-12T05:40:14.514Z,30.47
2023-05-12T05:45:17.066Z,27.40
2023-05-12T05:50:19.730Z,23.90
2023-05-12T05:55:22.540Z,16.80
2023-05-12T06:00:25.933Z,13.07
2023-05-12T06:05:28.566Z,8.50
2023-05-12T06:10:31.252Z,8.03
2023-05-12T06:15:34.380Z,9.37
2023-05-12T06:20:36.622Z,8.63
2023-05-12T06:25:38.824Z,279.23
2023-05-12T06:30:41.012Z,444.30
2023-05-12T06:35:43.316Z,479.57
2023-05-12T06:40:45.657Z,363.07
2023-05-12T06:45:48.306Z,351.07
2023-05-12T06:50:50.462Z,293.70
2023-05-12T06:55:56.462Z,236.30
2023-05-12T07:00:59.470Z,158.77
2023-05-12T07:06:02.256Z,151.10
2023-05-12T07:11:04.630Z,136.87
2023-05-12T07:16:07.533Z,487.43
2023-05-12T07:21:10.519Z,472.43
2023-05-12T07:26:12.785Z,410.17
2023-05-12T07:31:15.005Z,334.33
2023-05-12T07:36:17.201Z,232.83
2023-05-12T07:41:19.414Z,170.80
2023-05-12T07:46:21.547Z,129.37
2023-05-12T07:51:23.989Z,63.77
2023-05-12T07:56:26.167Z,48.27
2023-05-12T08:01:28.388Z,23.57
2023-05-12T08:06:31.941Z,15.77
2023-05-12T08:11:34.335Z,8.70
2023-05-12T08:16:36.857Z,14.93
2023-05-12T08:21:39.082Z,17.63
2023-05-12T08:26:41.343Z,13.10
2023-05-12T08:31:43.780Z,13.77
2023-05-12T08:36:46.126Z,16.40
2023-05-12T08:42:11.002Z,14.33
2023-05-12T08:47:15.074Z,11.77
2023-05-12T08:52:21.856Z,11.77
2023-05-12T08:57:26.403Z,398.50
2023-05-12T09:02:44.756Z,533.73
2023-05-12T09:07:53.571Z,590.93
2023-05-12T09:13:04.456Z,515.00
2023-05-12T09:18:06.944Z,534.30
2023-05-12T09:23:22.202Z,546.00
2023-05-12T09:28:24.500Z,543.53
2023-05-12T09:33:26.686Z,460.53
2023-05-12T09:38:29.057Z,398.83
2023-05-12T09:43:31.696Z,357.83
2023-05-12T09:48:34.514Z,332.53
2023-05-12T09:53:43.285Z,307.80
2023-05-12T09:58:48.576Z,289.07
2023-05-12T10:03:57.225Z,281.17
2023-05-12T10:09:19.549Z,264.07
2023-05-12T10:14:23.794Z,285.00
2023-05-12T10:19:28.581Z,278.93
2023-05-12T10:24:30.824Z,184.83
2023-05-12T10:29:35.338Z,189.37
2023-05-12T10:34:42.113Z,158.27
2023-05-12T10:39:52.538Z,143.60
2023-05-12T10:44:56.883Z,250.13
2023-05-12T10:50:00.093Z,238.03
2023-05-12T10:55:04.530Z,216.20
2023-05-12T11:00:14.885Z,243.30
2023-05-12T11:05:18.693Z,248.50
2023-05-12T11:10:22.080Z,243.77
2023-05-12T11:15:24.960Z,211.63
2023-05-12T11:20:29.534Z,207.77
2023-05-12T11:25:33.516Z,196.33
2023-05-12T11:30:35.836Z,418.10
2023-05-12T11:35:38.024Z,590.07
2023-05-12T11:40:41.499Z,672.47
2023-05-12T11:45:46.208Z,651.27
2023-05-12T11:50:51.477Z,645.80
2023-05-12T11:55:56.852Z,598.90
2023-05-12T12:01:12.840Z,536.43
2023-05-12T12:06:15.959Z,595.73
2023-05-12T12:11:19.949Z,544.37
2023-05-12T12:16:27.426Z,540.10
2023-05-12T12:21:29.682Z,430.77
2023-05-12T12:26:32.060Z,499.93
2023-05-12T12:31:36.473Z,483.20
2023-05-12T12:36:38.796Z,484.87
2023-05-12T12:41:41.295Z,482.03
2023-05-12T12:46:44.138Z,496.50
2023-05-12T12:51:47.358Z,507.87
2023-05-12T12:56:49.636Z,556.93
2023-05-12T13:01:51.999Z,542.30
2023-05-12T13:06:54.220Z,495.30
2023-05-12T13:11:56.559Z,475.27
2023-05-12T13:16:58.851Z,462.83
2023-05-12T13:22:01.044Z,453.03
2023-05-12T13:27:08.311Z,475.93
2023-05-12T13:32:10.593Z,471.73
2023-05-12T13:37:12.743Z,474.50
2023-05-12T13:42:15.133Z,491.93
2023-05-12T13:47:18.601Z,270.63
2023-05-12T13:52:21.119Z,255.50
2023-05-12T13:57:23.356Z,278.17
2023-05-12T14:02:25.804Z,300.07
2023-05-12T14:07:29.365Z,364.53
2023-05-12T14:12:31.988Z,281.30
2023-05-12T14:17:34.594Z,284.93
2023-05-12T14:22:36.916Z,323.90
2023-05-12T14:27:38.980Z,289.10
2023-05-12T14:32:41.358Z,306.47
2023-05-12T14:37:43.740Z,329.60
2023-05-12T14:42:47.464Z,310.23
2023-05-12T14:47:49.736Z,273.00
2023-05-12T14:52:52.026Z,308.33
2023-05-12T14:57:54.212Z,360.47
2023-05-12T15:02:56.478Z,382.17
2023-05-12T15:07:58.855Z,381.53
2023-05-12T15:13:01.183Z,381.73
2023-05-12T15:18:04.459Z,375.10
2023-05-12T15:23:07.028Z,363.27
2023-05-12T15:28:09.132Z,368.77
2023-05-12T15:33:11.445Z,460.70
2023-05-12T15:38:13.966Z,369.63
2023-05-12T15:43:16.142Z,417.67
2023-05-12T15:48:18.391Z,352.07
2023-05-12T15:53:20.641Z,423.80
2023-05-12T15:58:22.732Z,375.70
2023-05-12T16:03:25.192Z,390.13
2023-05-12T16:08:27.469Z,360.83
2023-05-12T16:13:29.638Z,355.20
2023-05-12T16:18:32.471Z,533.20
2023-05-12T16:23:34.935Z,407.80
2023-05-12T16:28:37.502Z,439.83
2023-05-12T16:33:39.765Z,436.83
2023-05-12T16:38:41.953Z,477.87
2023-05-12T16:43:44.188Z,497.43
2023-05-12T16:48:46.496Z,325.60
2023-05-12T16:53:48.653Z,355.13
2023-05-12T16:58:51.206Z,398.27
2023-05-12T17:03:53.407Z,408.40
2023-05-12T17:08:55.610Z,138.83
2023-05-12T17:13:57.970Z,67.73
2023-05-12T17:24:06.034Z,77.70
2023-05-12T17:29:08.336Z,90.90
2023-05-12T17:34:10.521Z,73.03
2023-05-12T17:39:15.904Z,89.53
2023-05-12T17:44:18.380Z,106.40
2023-05-12T17:49:20.600Z,96.37
2023-05-12T17:54:22.949Z,98.37
2023-05-12T17:59:25.406Z,121.00
2023-05-12T18:04:27.633Z,99.40
2023-05-12T18:09:30.455Z,99.73
2023-05-12T18:14:33.022Z,101.17
2023-05-12T18:19:35.679Z,87.83
2023-05-12T18:24:37.918Z,102.77
2023-05-12T18:29:40.184Z,104.77
2023-05-12T18:34:44.196Z,105.70
2023-05-12T18:39:46.377Z,111.43
2023-05-12T18:44:48.976Z,118.97
2023-05-12T18:49:51.224Z,118.17
2023-05-12T18:54:53.375Z,145.63
2023-05-12T18:59:55.924Z,139.30
2023-05-12T19:04:58.087Z,125.10
2023-05-12T19:10:00.305Z,135.93
2023-05-12T19:15:02.866Z,129.83
2023-05-12T19:20:06.370Z,116.80
2023-05-12T19:25:09.658Z,141.57
2023-05-12T19:30:14.152Z,160.07
2023-05-12T19:35:20.084Z,170.87
2023-05-12T19:40:22.345Z,162.20
2023-05-12T19:45:24.551Z,147.63
2023-05-12T19:50:29.679Z,132.57
2023-05-12T19:55:31.992Z,126.03
2023-05-12T20:00:34.596Z,119.73
2023-05-12T20:05:37.843Z,132.07
2023-05-12T20:10:40.063Z,126.17
2023-05-12T20:15:44.193Z,151.37
2023-05-12T20:20:46.310Z,153.67
2023-05-12T20:25:48.490Z,166.57
2023-05-12T20:30:50.759Z,176.70
2023-05-12T20:35:52.973Z,183.37
2023-05-12T20:40:55.549Z,163.50
2023-05-12T20:45:57.759Z,129.27
2023-05-12T20:51:09.344Z,154.30
2023-05-12T20:56:12.979Z,146.00
2023-05-12T21:01:18.989Z,184.87
2023-05-12T21:06:21.163Z,161.23
2023-05-12T21:11:23.305Z,158.50
2023-05-12T21:16:25.572Z,146.13
2023-05-12T21:21:28.877Z,174.10
2023-05-12T21:26:30.966Z,173.50
2023-05-12T21:31:33.384Z,178.67
2023-05-12T21:36:35.834Z,237.00
2023-05-12T21:41:38.715Z,180.53
2023-05-12T21:46:41.168Z,144.63
2023-05-12T21:51:43.386Z,116.37
2023-05-12T21:56:45.492Z,119.07
2023-05-12T22:01:47.691Z,115.60
2023-05-12T22:06:52.007Z,97.30
2023-05-12T22:11:54.153Z,112.90
2023-05-12T22:16:56.877Z,96.90
2023-05-12T22:21:59.141Z,85.37
2023-05-12T22:27:01.575Z,96.87
2023-05-12T22:32:04.209Z,106.63
2023-05-12T22:37:06.462Z,105.63
2023-05-12T22:42:08.541Z,109.07
2023-05-12T22:47:10.930Z,108.07
2023-05-12T22:52:13.255Z,137.43
2023-05-12T22:57:15.421Z,159.50
2023-05-12T23:02:17.569Z,117.27
2023-05-12T23:07:19.742Z,110.97
2023-05-12T23:12:21.914Z,98.90
2023-05-12T23:17:24.230Z,121.73
2023-05-12T23:22:26.552Z,114.93
2023-05-12T23:27:28.706Z,111.93
2023-05-12T23:32:31.422Z,106.73
2023-05-12T23:37:34.358Z,146.37
2023-05-12T23:42:36.637Z,192.17
2023-05-12T23:47:39.055Z,208.87
2023-05-12T23:52:41.403Z,183.07
2023-05-12T23:57:43.530Z,226.80
